createdAt,value
2023-04-22T00:00:13.864Z,0.00
2023-04-22T00:01:13.846Z,0.00
2023-04-22T00:02:13.895Z,0.00
2023-04-22T00:03:14.148Z,0.00
2023-04-22T00:04:14.288Z,0.00
2023-04-22T00:05:16.463Z,0.00
2023-04-22T00:06:13.774Z,0.00
2023-04-22T00:07:13.792Z,0.00
2023-04-22T00:08:13.757Z,0.00
2023-04-22T00:09:13.749Z,0.00
2023-04-22T00:10:13.781Z,0.00
2023-04-22T00:11:13.735Z,0.00
2023-04-22T00:12:13.713Z,0.00
2023-04-22T00:13:13.704Z,0.00
2023-04-22T00:14:13.690Z,0.00
2023-04-22T00:15:13.679Z,0.00
2023-04-22T00:16:13.773Z,0.00
2023-04-22T00:17:13.664Z,0.00
2023-04-22T00:18:13.756Z,0.00
2023-04-22T00:19:13.639Z,0.00
2023-04-22T00:20:13.651Z,0.00
2023-04-22T00:21:13.618Z,0.00
2023-04-22T00:22:13.705Z,0.00
2023-04-22T00:23:13.609Z,0.00
2023-04-22T00:24:13.580Z,0.00
2023-04-22T00:25:13.595Z,0.00
2023-04-22T00:26:13.558Z,0.00
2023-04-22T00:27:13.556Z,0.00
2023-04-22T00:28:13.569Z,0.00
2023-04-22T00:29:13.529Z,0.00
2023-04-22T00:30:13.548Z,0.00
2023-04-22T00:31:13.554Z,0.00
2023-04-22T00:32:13.528Z,0.00
2023-04-22T00:33:13.526Z,0.00
2023-04-22T00:34:13.502Z,0.00
2023-04-22T00:35:13.477Z,0.00
2023-04-22T00:36:13.540Z,0.00
2023-04-22T00:37:13.454Z,0.00
2023-04-22T00:38:13.437Z,0.00
2023-04-22T00:39:13.408Z,0.00
2023-04-22T00:40:13.419Z,0.00
2023-04-22T00:41:13.414Z,0.00
2023-04-22T00:42:13.425Z,0.00
2023-04-22T00:43:13.387Z,0.00
2023-04-22T00:44:13.369Z,0.00
2023-04-22T00:45:13.347Z,0.00
2023-04-22T00:46:13.385Z,0.00
2023-04-22T00:47:13.380Z,0.00
2023-04-22T00:48:13.382Z,0.00
2023-04-22T00:49:13.299Z,0.00
2023-04-22T00:50:13.285Z,0.00
2023-04-22T00:51:13.345Z,0.00
2023-04-22T00:52:13.311Z,0.00
2023-04-22T00:53:13.278Z,0.00
2023-04-22T00:54:13.268Z,0.00
2023-04-22T00:55:13.250Z,0.00
2023-04-22T00:56:13.244Z,0.00
2023-04-22T00:57:13.218Z,0.00
2023-04-22T00:58:13.200Z,0.00
2023-04-22T00:59:13.259Z,0.00
2023-04-22T01:00:13.203Z,0.00
2023-04-22T01:01:13.221Z,0.00
2023-04-22T01:02:13.232Z,0.00
2023-04-22T01:03:13.318Z,0.00
2023-04-22T01:04:13.285Z,0.00
2023-04-22T01:05:13.148Z,0.00
2023-04-22T01:06:13.144Z,0.00
2023-04-22T01:07:13.112Z,0.00
2023-04-22T01:08:13.149Z,0.00
2023-04-22T01:09:13.108Z,0.00
2023-04-22T01:10:13.070Z,0.00
2023-04-22T01:11:13.090Z,0.00
2023-04-22T01:12:13.049Z,0.00
2023-04-22T01:13:13.041Z,0.00
2023-04-22T01:14:13.088Z,0.00
2023-04-22T01:15:13.047Z,0.00
2023-04-22T01:16:13.056Z,0.00
2023-04-22T01:17:12.992Z,0.00
2023-04-22T01:18:12.991Z,0.00
2023-04-22T01:19:13.001Z,0.00
2023-04-22T01:20:12.971Z,0.00
2023-04-22T01:21:12.984Z,0.00
2023-04-22T01:22:12.976Z,0.00
2023-04-22T01:23:12.934Z,0.00
2023-04-22T01:24:12.954Z,0.00
2023-04-22T01:25:12.918Z,0.00
2023-04-22T01:26:12.902Z,0.00
2023-04-22T01:27:12.924Z,0.00
2023-04-22T01:28:12.878Z,0.00
2023-04-22T01:29:12.877Z,0.00
2023-04-22T01:30:12.884Z,0.00
2023-04-22T01:31:12.878Z,0.00
2023-04-22T01:32:12.881Z,0.00
2023-04-22T01:33:12.883Z,0.00
2023-04-22T01:34:12.886Z,0.00
2023-04-22T01:35:12.799Z,0.00
2023-04-22T01:36:13.303Z,0.00
2023-04-22T01:37:12.781Z,0.00
2023-04-22T01:38:12.796Z,0.00
2023-04-22T01:39:12.764Z,0.00
2023-04-22T01:40:12.793Z,0.00
2023-04-22T01:41:12.739Z,0.00
2023-04-22T01:42:12.719Z,0.00
2023-04-22T01:43:12.739Z,0.00
2023-04-22T01:44:12.704Z,0.00
2023-04-22T01:45:12.707Z,0.00
2023-04-22T01:46:12.746Z,0.00
2023-04-22T01:47:12.663Z,0.00
2023-04-22T01:48:12.728Z,0.00
2023-04-22T01:49:12.650Z,0.00
2023-04-22T01:50:12.642Z,0.00
2023-04-22T01:51:12.623Z,0.00
2023-04-22T01:52:12.688Z,0.00
2023-04-22T01:53:12.627Z,0.00
2023-04-22T01:54:12.648Z,0.00
2023-04-22T01:55:12.582Z,0.00
2023-04-22T01:56:12.596Z,0.00
2023-04-22T01:57:12.555Z,0.00
2023-04-22T01:58:12.563Z,0.00
2023-04-22T01:59:12.539Z,0.00
2023-04-22T02:00:12.548Z,0.00
2023-04-22T02:01:12.527Z,0.00
2023-04-22T02:02:12.595Z,0.00
2023-04-22T02:03:12.611Z,0.00
2023-04-22T02:04:12.486Z,0.00
2023-04-22T02:05:12.532Z,0.00
2023-04-22T02:06:12.502Z,0.00
2023-04-22T02:07:12.456Z,0.00
2023-04-22T02:08:12.441Z,0.00
2023-04-22T02:09:12.425Z,0.00
2023-04-22T02:10:12.443Z,0.00
2023-04-22T02:11:12.403Z,0.00
2023-04-22T02:12:12.430Z,0.00
2023-04-22T02:13:12.402Z,0.00
2023-04-22T02:14:12.373Z,0.00
2023-04-22T02:15:12.356Z,0.00
2023-04-22T02:16:12.420Z,0.00
2023-04-22T02:17:12.334Z,0.00
2023-04-22T02:18:12.369Z,0.00
2023-04-22T02:19:12.321Z,0.00
2023-04-22T02:20:12.377Z,0.00
2023-04-22T02:21:12.292Z,0.00
2023-04-22T02:22:12.288Z,0.00
2023-04-22T02:23:12.286Z,0.00
2023-04-22T02:24:12.264Z,0.00
2023-04-22T02:25:12.302Z,0.00
2023-04-22T02:26:12.243Z,0.00
2023-04-22T02:27:12.230Z,0.00
2023-04-22T02:28:12.251Z,0.00
2023-04-22T02:29:12.210Z,0.00
2023-04-22T02:30:12.217Z,0.00
2023-04-22T02:31:12.228Z,0.00
2023-04-22T02:32:12.184Z,0.00
2023-04-22T02:33:12.186Z,0.00
2023-04-22T02:34:12.172Z,0.00
2023-04-22T02:35:12.156Z,0.00
2023-04-22T02:36:12.151Z,0.00
2023-04-22T02:37:12.130Z,0.00
2023-04-22T02:38:12.135Z,0.00
2023-04-22T02:39:12.121Z,0.00
2023-04-22T02:40:12.150Z,0.00
2023-04-22T02:41:12.095Z,0.00
2023-04-22T02:42:12.067Z,0.00
2023-04-22T02:43:12.072Z,0.00
2023-04-22T02:44:12.056Z,0.00
2023-04-22T02:45:12.090Z,0.00
2023-04-22T02:46:12.093Z,0.00
2023-04-22T02:47:12.009Z,0.00
2023-04-22T02:48:12.098Z,0.00
2023-04-22T02:49:12.015Z,0.00
2023-04-22T02:50:11.993Z,0.00
2023-04-22T02:51:11.993Z,0.00
2023-04-22T02:52:11.963Z,0.00
2023-04-22T02:53:11.957Z,0.00
2023-04-22T02:54:11.950Z,0.00
2023-04-22T02:55:11.921Z,0.00
2023-04-22T02:56:11.922Z,0.00
2023-04-22T02:57:11.906Z,0.00
2023-04-22T02:58:11.929Z,0.00
2023-04-22T02:59:11.914Z,0.00
2023-04-22T03:00:11.884Z,0.00
2023-04-22T03:01:11.931Z,0.00
2023-04-22T03:02:11.954Z,0.00
2023-04-22T03:03:11.940Z,0.00
2023-04-22T03:04:11.930Z,0.00
2023-04-22T03:05:11.877Z,0.00
2023-04-22T03:06:11.804Z,0.00
2023-04-22T03:07:11.833Z,0.00
2023-04-22T03:08:11.777Z,0.00
2023-04-22T03:09:11.789Z,0.00
2023-04-22T03:10:11.793Z,0.00
2023-04-22T03:11:11.737Z,0.00
2023-04-22T03:12:11.724Z,0.00
2023-04-22T03:13:11.739Z,0.00
2023-04-22T03:14:11.711Z,0.00
2023-04-22T03:15:11.701Z,0.00
2023-04-22T03:16:11.772Z,0.00
2023-04-22T03:17:11.685Z,0.00
2023-04-22T03:18:11.664Z,0.00
2023-04-22T03:19:11.701Z,0.00
2023-04-22T03:20:11.674Z,0.00
2023-04-22T03:21:11.645Z,0.00
2023-04-22T03:22:11.630Z,0.00
2023-04-22T03:23:11.627Z,0.00
2023-04-22T03:24:11.597Z,0.00
2023-04-22T03:25:11.605Z,0.00
2023-04-22T03:26:11.592Z,0.00
2023-04-22T03:27:11.568Z,0.00
2023-04-22T03:28:11.572Z,0.00
2023-04-22T03:29:11.548Z,0.00
2023-04-22T03:30:11.540Z,0.00
2023-04-22T03:31:11.558Z,0.00
2023-04-22T03:32:11.630Z,0.00
2023-04-22T03:33:11.593Z,0.00
2023-04-22T03:34:11.491Z,0.00
2023-04-22T03:35:19.089Z,0.00
2023-04-22T03:36:11.473Z,0.00
2023-04-22T03:37:11.503Z,0.00
2023-04-22T03:38:11.464Z,0.00
2023-04-22T03:39:11.432Z,0.00
2023-04-22T03:40:13.457Z,0.00
2023-04-22T03:41:11.464Z,0.00
2023-04-22T03:42:11.404Z,0.00
2023-04-22T03:43:11.403Z,0.00
2023-04-22T03:44:11.399Z,0.00
2023-04-22T03:45:11.408Z,0.00
2023-04-22T03:46:11.455Z,0.00
2023-04-22T03:47:11.352Z,0.00
2023-04-22T03:48:11.361Z,0.00
2023-04-22T03:49:11.348Z,0.00
2023-04-22T03:50:11.333Z,0.00
2023-04-22T03:51:11.308Z,0.00
2023-04-22T03:52:11.290Z,0.00
2023-04-22T03:53:11.286Z,0.00
2023-04-22T03:54:11.308Z,0.00
2023-04-22T03:55:11.289Z,0.00
2023-04-22T03:56:11.243Z,0.00
2023-04-22T03:57:11.240Z,0.00
2023-04-22T03:58:11.225Z,0.00
2023-04-22T03:59:11.225Z,0.00
2023-04-22T04:00:11.221Z,0.00
2023-04-22T04:01:11.224Z,0.00
2023-04-22T04:02:11.249Z,0.00
2023-04-22T04:03:11.449Z,0.00
2023-04-22T04:04:11.351Z,0.00
2023-04-22T04:05:11.361Z,0.00
2023-04-22T04:06:11.135Z,0.00
2023-04-22T04:07:11.142Z,0.00
2023-04-22T04:08:11.209Z,0.00
2023-04-22T04:09:11.123Z,0.00
2023-04-22T04:10:11.101Z,0.00
2023-04-22T04:11:11.103Z,0.00
2023-04-22T04:12:11.095Z,0.00
2023-04-22T04:13:11.087Z,0.00
2023-04-22T04:14:11.093Z,0.00
2023-04-22T04:15:11.049Z,0.00
2023-04-22T04:16:11.065Z,0.00
2023-04-22T04:17:11.021Z,0.00
2023-04-22T04:18:11.006Z,0.00
2023-04-22T04:19:11.021Z,0.00
2023-04-22T04:20:11.012Z,0.00
2023-04-22T04:21:10.986Z,0.00
2023-04-22T04:22:11.015Z,0.00
2023-04-22T04:23:10.956Z,0.00
2023-04-22T04:24:11.026Z,0.00
2023-04-22T04:25:10.947Z,0.00
2023-04-22T04:26:10.931Z,0.00
2023-04-22T04:27:10.938Z,0.00
2023-04-22T04:28:10.904Z,0.00
2023-04-22T04:29:10.911Z,0.00
2023-04-22T04:30:10.891Z,0.00
2023-04-22T04:31:10.929Z,0.00
2023-04-22T04:32:10.871Z,0.00
2023-04-22T04:33:10.921Z,0.00
2023-04-22T04:34:10.849Z,0.00
2023-04-22T04:35:10.844Z,0.00
2023-04-22T04:36:10.832Z,0.00
2023-04-22T04:37:10.820Z,0.00
2023-04-22T04:38:10.782Z,0.00
2023-04-22T04:39:10.800Z,0.00
2023-04-22T04:40:10.766Z,0.00
2023-04-22T04:41:10.817Z,0.00
2023-04-22T04:42:10.742Z,0.00
2023-04-22T04:43:10.759Z,0.00
2023-04-22T04:44:10.738Z,0.00
2023-04-22T04:45:10.762Z,0.00
2023-04-22T04:46:10.744Z,0.00
2023-04-22T04:47:10.704Z,0.00
2023-04-22T04:48:10.729Z,0.00
2023-04-22T04:49:10.707Z,0.00
2023-04-22T04:50:10.657Z,0.00
2023-04-22T04:51:10.646Z,0.00
2023-04-22T04:52:10.646Z,0.00
2023-04-22T04:53:10.645Z,0.00
2023-04-22T04:54:10.622Z,0.00
2023-04-22T04:55:10.641Z,0.00
2023-04-22T04:56:10.583Z,0.00
2023-04-22T04:57:10.574Z,0.00
2023-04-22T04:58:10.567Z,0.00
2023-04-22T04:59:10.570Z,0.00
2023-04-22T05:00:10.576Z,0.00
2023-04-22T05:01:10.575Z,0.00
2023-04-22T05:02:10.615Z,0.00
2023-04-22T05:03:10.670Z,0.00
2023-04-22T05:04:10.617Z,0.00
2023-04-22T05:05:10.490Z,0.00
2023-04-22T05:06:10.479Z,0.00
2023-04-22T05:07:10.485Z,0.00
2023-04-22T05:08:10.479Z,0.00
2023-04-22T05:09:10.466Z,0.00
2023-04-22T05:10:10.532Z,0.00
2023-04-22T05:11:10.425Z,0.00
2023-04-22T05:12:10.415Z,0.00
2023-04-22T05:13:10.402Z,0.00
2023-04-22T05:14:10.425Z,0.00
2023-04-22T05:15:10.396Z,0.00
2023-04-22T05:16:10.456Z,5.62
2023-04-22T05:17:10.381Z,5.62
2023-04-22T05:18:10.430Z,5.62
2023-04-22T05:19:10.345Z,5.62
2023-04-22T05:20:10.358Z,5.62
2023-04-22T05:21:10.339Z,5.62
2023-04-22T05:22:10.308Z,5.62
2023-04-22T05:23:10.298Z,5.62
2023-04-22T05:24:10.302Z,5.62
2023-04-22T05:25:10.286Z,5.62
2023-04-22T05:26:10.290Z,5.62
2023-04-22T05:27:10.255Z,5.62
2023-04-22T05:28:10.241Z,5.62
2023-04-22T05:29:10.254Z,5.62
2023-04-22T05:30:10.251Z,11.25
2023-04-22T05:31:10.231Z,11.25
2023-04-22T05:32:10.309Z,11.25
2023-04-22T05:33:10.231Z,11.25
2023-04-22T05:34:10.180Z,11.25
2023-04-22T05:35:10.200Z,11.25
2023-04-22T05:36:10.166Z,11.25
2023-04-22T05:37:10.148Z,11.25
2023-04-22T05:38:10.156Z,11.25
2023-04-22T05:39:10.142Z,11.25
2023-04-22T05:40:10.121Z,11.25
2023-04-22T05:41:10.109Z,11.25
2023-04-22T05:42:10.086Z,11.25
2023-04-22T05:43:10.097Z,11.25
2023-04-22T05:44:10.086Z,16.88
2023-04-22T05:45:10.068Z,16.88
2023-04-22T05:46:10.168Z,16.88
2023-04-22T05:47:10.072Z,11.25
2023-04-22T05:48:10.059Z,11.25
2023-04-22T05:49:10.025Z,11.25
2023-04-22T05:50:10.048Z,11.25
2023-04-22T05:51:10.012Z,11.25
2023-04-22T05:52:09.984Z,11.25
2023-04-22T05:53:09.976Z,11.25
2023-04-22T05:54:09.959Z,11.25
2023-04-22T05:55:09.947Z,11.25
2023-04-22T05:56:09.949Z,11.25
2023-04-22T05:57:09.933Z,5.62
2023-04-22T05:58:09.917Z,5.62
2023-04-22T05:59:09.918Z,11.25
2023-04-22T06:00:09.890Z,5.62
2023-04-22T06:01:09.884Z,5.62
2023-04-22T06:02:09.985Z,5.62
2023-04-22T06:03:09.985Z,5.62
2023-04-22T06:04:10.068Z,5.62
2023-04-22T06:05:10.022Z,5.62
2023-04-22T06:06:09.823Z,5.62
2023-04-22T06:07:09.841Z,5.62
2023-04-22T06:08:09.831Z,5.62
2023-04-22T06:09:09.795Z,5.62
2023-04-22T06:10:09.783Z,5.62
2023-04-22T06:11:09.773Z,11.25
2023-04-22T06:12:09.769Z,11.25
2023-04-22T06:13:09.758Z,11.25
2023-04-22T06:14:09.794Z,11.25
2023-04-22T06:15:09.729Z,11.25
2023-04-22T06:16:09.727Z,11.25
2023-04-22T06:17:09.745Z,11.25
2023-04-22T06:18:09.757Z,11.25
2023-04-22T06:19:10.393Z,11.25
2023-04-22T06:20:09.710Z,11.25
2023-04-22T06:21:09.696Z,11.25
2023-04-22T06:22:09.655Z,11.25
2023-04-22T06:23:09.651Z,11.25
2023-04-22T06:24:09.632Z,11.25
2023-04-22T06:25:09.651Z,11.25
2023-04-22T06:26:09.609Z,11.25
2023-04-22T06:27:09.622Z,11.25
2023-04-22T06:28:09.593Z,11.25
2023-04-22T06:29:09.606Z,11.25
2023-04-22T06:30:09.571Z,11.25
2023-04-22T06:31:09.627Z,16.88
2023-04-22T06:32:09.541Z,16.88
2023-04-22T06:33:09.570Z,16.88
2023-04-22T06:34:09.545Z,22.50
2023-04-22T06:35:09.519Z,33.75
2023-04-22T06:36:09.601Z,50.62
2023-04-22T06:37:09.487Z,50.62
2023-04-22T06:38:09.479Z,50.62
2023-04-22T06:39:09.484Z,50.62
2023-04-22T06:40:09.453Z,50.62
2023-04-22T06:41:09.443Z,50.62
2023-04-22T06:42:09.450Z,50.62
2023-04-22T06:43:09.446Z,45.00
2023-04-22T06:44:09.421Z,50.62
2023-04-22T06:45:09.408Z,50.62
2023-04-22T06:46:09.423Z,50.62
2023-04-22T06:47:09.386Z,45.00
2023-04-22T06:48:09.384Z,45.00
2023-04-22T06:49:09.359Z,39.38
2023-04-22T06:50:09.372Z,33.75
2023-04-22T06:51:09.341Z,39.38
2023-04-22T06:52:09.334Z,39.38
2023-04-22T06:53:09.309Z,45.00
2023-04-22T06:54:09.301Z,50.62
2023-04-22T06:55:09.310Z,50.62
2023-04-22T06:56:09.291Z,50.62
2023-04-22T06:57:09.263Z,56.25
2023-04-22T06:58:09.255Z,50.62
2023-04-22T06:59:09.242Z,50.62
2023-04-22T07:00:09.254Z,50.62
2023-04-22T07:01:09.253Z,50.62
2023-04-22T07:02:09.365Z,50.62
2023-04-22T07:03:09.348Z,45.00
2023-04-22T07:04:09.304Z,56.25
2023-04-22T07:05:09.195Z,56.25
2023-04-22T07:06:09.189Z,56.25
2023-04-22T07:07:09.247Z,56.25
2023-04-22T07:08:09.317Z,61.88
2023-04-22T07:09:09.172Z,61.88
2023-04-22T07:10:09.695Z,61.88
2023-04-22T07:11:09.213Z,56.25
2023-04-22T07:12:09.208Z,50.62
2023-04-22T07:13:09.114Z,56.25
2023-04-22T07:14:09.201Z,56.25
2023-04-22T07:15:09.081Z,61.88
2023-04-22T07:16:09.193Z,61.88
2023-04-22T07:17:09.042Z,61.88
2023-04-22T07:18:09.037Z,61.88
2023-04-22T07:19:09.033Z,56.25
2023-04-22T07:20:09.035Z,56.25
2023-04-22T07:21:09.002Z,61.88
2023-04-22T07:22:09.023Z,61.88
2023-04-22T07:23:08.986Z,50.62
2023-04-22T07:24:08.970Z,45.00
2023-04-22T07:25:09.695Z,39.38
2023-04-22T07:26:08.960Z,39.38
2023-04-22T07:27:08.946Z,50.62
2023-04-22T07:28:08.943Z,50.62
2023-04-22T07:29:08.909Z,45.00
2023-04-22T07:30:08.928Z,45.00
2023-04-22T07:31:08.895Z,39.38
2023-04-22T07:32:08.943Z,39.38
2023-04-22T07:33:08.867Z,39.38
2023-04-22T07:34:08.859Z,50.62
2023-04-22T07:35:08.854Z,45.00
2023-04-22T07:36:08.849Z,50.62
2023-04-22T07:37:08.846Z,56.25
2023-04-22T07:38:09.831Z,56.25
2023-04-22T07:39:09.704Z,56.25
2023-04-22T07:40:08.837Z,56.25
2023-04-22T07:41:09.731Z,56.25
2023-04-22T07:42:09.688Z,56.25
2023-04-22T07:43:08.763Z,61.88
2023-04-22T07:44:08.750Z,61.88
2023-04-22T07:45:08.766Z,61.88
2023-04-22T07:46:08.793Z,61.88
2023-04-22T07:47:08.749Z,61.88
2023-04-22T07:48:08.714Z,56.25
2023-04-22T07:49:08.710Z,56.25
2023-04-22T07:50:08.678Z,50.62
2023-04-22T07:51:08.680Z,56.25
2023-04-22T07:52:08.656Z,61.88
2023-04-22T07:53:08.643Z,61.88
2023-04-22T07:54:08.723Z,61.88
2023-04-22T07:55:08.624Z,61.88
2023-04-22T07:56:08.666Z,61.88
2023-04-22T07:57:08.599Z,61.88
2023-04-22T07:58:08.597Z,67.50
2023-04-22T07:59:08.583Z,61.88
2023-04-22T08:00:08.582Z,67.50
2023-04-22T08:01:08.589Z,61.88
2023-04-22T08:02:08.758Z,61.88
2023-04-22T08:03:08.828Z,56.25
2023-04-22T08:04:09.506Z,56.25
2023-04-22T08:05:08.608Z,56.25
2023-04-22T08:06:08.510Z,61.88
2023-04-22T08:07:26.905Z,61.88
2023-04-22T08:08:09.514Z,61.88
2023-04-22T08:09:08.471Z,61.88
2023-04-22T08:10:08.467Z,61.88
2023-04-22T08:11:08.483Z,56.25
2023-04-22T08:12:08.457Z,50.62
2023-04-22T08:13:08.426Z,56.25
2023-04-22T08:14:08.448Z,56.25
2023-04-22T08:15:08.422Z,61.88
2023-04-22T08:16:08.485Z,56.25
2023-04-22T08:17:08.414Z,50.62
2023-04-22T08:18:08.471Z,39.38
2023-04-22T08:19:08.393Z,50.62
2023-04-22T08:20:08.400Z,50.62
2023-04-22T08:21:08.348Z,61.88
2023-04-22T08:22:08.337Z,50.62
2023-04-22T08:23:08.344Z,50.62
2023-04-22T08:24:08.322Z,50.62
2023-04-22T08:25:08.336Z,50.62
2023-04-22T08:26:08.308Z,50.62
2023-04-22T08:27:08.288Z,50.62
2023-04-22T08:28:08.282Z,56.25
2023-04-22T08:29:08.285Z,56.25
2023-04-22T08:30:08.287Z,56.25
2023-04-22T08:31:08.269Z,56.25
2023-04-22T08:32:08.260Z,56.25
2023-04-22T08:33:08.224Z,61.88
2023-04-22T08:34:08.230Z,50.62
2023-04-22T08:35:08.199Z,56.25
2023-04-22T08:36:08.215Z,61.88
2023-04-22T08:37:08.223Z,61.88
2023-04-22T08:38:08.177Z,61.88
2023-04-22T08:39:08.156Z,61.88
2023-04-22T08:40:08.146Z,56.25
2023-04-22T08:41:08.147Z,50.62
2023-04-22T08:42:08.141Z,50.62
2023-04-22T08:43:08.148Z,45.00
2023-04-22T08:44:08.094Z,50.62
2023-04-22T08:45:08.087Z,50.62
2023-04-22T08:46:08.191Z,50.62
2023-04-22T08:47:08.218Z,50.62
2023-04-22T08:48:08.072Z,50.62
2023-04-22T08:49:08.064Z,50.62
2023-04-22T08:50:08.050Z,50.62
2023-04-22T08:51:08.020Z,56.25
2023-04-22T08:52:08.030Z,56.25
2023-04-22T08:53:07.996Z,50.62
2023-04-22T08:54:08.044Z,50.62
2023-04-22T08:55:08.008Z,50.62
2023-04-22T08:56:07.973Z,56.25
2023-04-22T08:57:07.958Z,56.25
2023-04-22T08:58:07.936Z,61.88
2023-04-22T08:59:07.933Z,61.88
2023-04-22T09:00:07.943Z,61.88
2023-04-22T09:01:07.940Z,61.88
2023-04-22T09:02:08.072Z,50.62
2023-04-22T09:03:07.998Z,45.00
2023-04-22T09:04:07.940Z,45.00
2023-04-22T09:05:07.863Z,33.75
2023-04-22T09:06:07.925Z,39.38
2023-04-22T09:07:07.844Z,33.75
2023-04-22T09:08:07.848Z,50.62
2023-04-22T09:09:07.823Z,61.88
2023-04-22T09:10:07.832Z,67.50
2023-04-22T09:11:07.795Z,73.12
2023-04-22T09:12:07.819Z,61.88
2023-04-22T09:13:07.804Z,56.25
2023-04-22T09:14:07.790Z,56.25
2023-04-22T09:15:07.826Z,50.62
2023-04-22T09:16:07.800Z,67.50
2023-04-22T09:17:07.771Z,73.12
2023-04-22T09:18:07.725Z,73.12
2023-04-22T09:19:07.713Z,73.12
2023-04-22T09:20:07.763Z,61.88
2023-04-22T09:21:07.693Z,56.25
2023-04-22T09:22:07.695Z,61.88
2023-04-22T09:23:07.701Z,61.88
2023-04-22T09:24:07.661Z,61.88
2023-04-22T09:25:07.675Z,61.88
2023-04-22T09:26:07.632Z,67.50
2023-04-22T09:27:07.643Z,61.88
2023-04-22T09:28:07.642Z,50.62
2023-04-22T09:29:07.610Z,50.62
2023-04-22T09:30:07.599Z,50.62
2023-04-22T09:31:07.596Z,45.00
2023-04-22T09:32:07.684Z,50.62
2023-04-22T09:33:07.634Z,50.62
2023-04-22T09:34:07.575Z,50.62
2023-04-22T09:35:15.078Z,73.12
2023-04-22T09:36:07.514Z,56.25
2023-04-22T09:37:07.507Z,56.25
2023-04-22T09:38:07.503Z,45.00
2023-04-22T09:39:07.549Z,50.62
2023-04-22T09:40:07.497Z,39.38
2023-04-22T09:41:07.480Z,39.38
2023-04-22T09:42:07.462Z,33.75
2023-04-22T09:43:07.465Z,39.38
2023-04-22T09:44:07.431Z,45.00
2023-04-22T09:45:07.419Z,50.62
2023-04-22T09:46:07.466Z,50.62
2023-04-22T09:47:07.397Z,45.00
2023-04-22T09:48:07.391Z,45.00
2023-04-22T09:49:07.400Z,39.38
2023-04-22T09:50:07.427Z,73.12
2023-04-22T09:51:07.349Z,73.12
2023-04-22T09:52:07.352Z,67.50
2023-04-22T09:53:07.337Z,73.12
2023-04-22T09:54:07.319Z,84.38
2023-04-22T09:55:07.312Z,73.12
2023-04-22T09:56:07.340Z,78.75
2023-04-22T09:57:08.456Z,67.50
2023-04-22T09:58:07.299Z,45.00
2023-04-22T09:59:07.272Z,39.38
2023-04-22T10:00:07.271Z,33.75
2023-04-22T10:01:07.267Z,33.75
2023-04-22T10:02:07.303Z,78.75
2023-04-22T10:03:08.954Z,78.75
2023-04-22T10:04:07.267Z,56.25
2023-04-22T10:05:07.206Z,61.88
2023-04-22T10:06:07.214Z,39.38
2023-04-22T10:07:07.199Z,61.88
2023-04-22T10:08:07.184Z,50.62
2023-04-22T10:09:09.382Z,22.50
2023-04-22T10:10:07.156Z,22.50
2023-04-22T10:11:07.170Z,22.50
2023-04-22T10:12:07.140Z,22.50
2023-04-22T10:13:07.140Z,22.50
2023-04-22T10:14:07.109Z,16.88
2023-04-22T10:15:07.126Z,22.50
2023-04-22T10:16:07.102Z,22.50
2023-04-22T10:17:07.152Z,22.50
2023-04-22T10:18:07.080Z,28.12
2023-04-22T10:19:07.055Z,28.12
2023-04-22T10:20:07.044Z,33.75
2023-04-22T10:21:07.046Z,33.75
2023-04-22T10:22:07.017Z,33.75
2023-04-22T10:23:07.005Z,33.75
2023-04-22T10:24:07.012Z,33.75
2023-04-22T10:25:06.980Z,33.75
2023-04-22T10:26:06.973Z,45.00
2023-04-22T10:27:06.956Z,45.00
2023-04-22T10:28:06.969Z,39.38
2023-04-22T10:29:06.960Z,33.75
2023-04-22T10:30:06.934Z,33.75
2023-04-22T10:31:06.953Z,33.75
2023-04-22T10:32:08.443Z,33.75
2023-04-22T10:33:06.890Z,33.75
2023-04-22T10:34:06.886Z,33.75
2023-04-22T10:35:06.899Z,33.75
2023-04-22T10:36:06.862Z,28.12
2023-04-22T10:37:06.849Z,28.12
2023-04-22T10:38:06.843Z,28.12
2023-04-22T10:39:06.867Z,28.12
2023-04-22T10:40:06.849Z,33.75
2023-04-22T10:41:06.810Z,33.75
2023-04-22T10:42:06.817Z,33.75
2023-04-22T10:43:06.791Z,33.75
2023-04-22T10:44:06.826Z,33.75
2023-04-22T10:45:06.761Z,45.00
2023-04-22T10:46:06.791Z,39.38
2023-04-22T10:47:06.752Z,45.00
2023-04-22T10:48:06.800Z,56.25
2023-04-22T10:49:06.919Z,45.00
2023-04-22T10:50:06.731Z,45.00
2023-04-22T10:51:06.698Z,33.75
2023-04-22T10:52:06.702Z,33.75
2023-04-22T10:53:06.684Z,33.75
2023-04-22T10:54:06.680Z,28.12
2023-04-22T10:55:06.652Z,28.12
2023-04-22T10:56:06.655Z,28.12
2023-04-22T10:57:06.721Z,28.12
2023-04-22T10:58:06.631Z,28.12
2023-04-22T10:59:06.620Z,28.12
2023-04-22T11:00:06.624Z,28.12
2023-04-22T11:01:06.602Z,33.75
2023-04-22T11:02:06.721Z,33.75
2023-04-22T11:03:06.644Z,33.75
2023-04-22T11:04:06.682Z,33.75
2023-04-22T11:05:06.553Z,33.75
2023-04-22T11:06:06.561Z,33.75
2023-04-22T11:07:06.536Z,33.75
2023-04-22T11:08:06.544Z,33.75
2023-04-22T11:09:06.534Z,39.38
2023-04-22T11:10:06.502Z,50.62
2023-04-22T11:11:06.626Z,33.75
2023-04-22T11:12:06.490Z,50.62
2023-04-22T11:13:06.469Z,39.38
2023-04-22T11:14:06.460Z,39.38
2023-04-22T11:15:06.450Z,56.25
2023-04-22T11:16:06.504Z,50.62
2023-04-22T11:17:06.433Z,56.25
2023-04-22T11:18:06.414Z,61.88
2023-04-22T11:19:06.424Z,61.88
2023-04-22T11:20:06.394Z,61.88
2023-04-22T11:21:06.413Z,56.25
2023-04-22T11:22:06.375Z,50.62
2023-04-22T11:23:06.388Z,33.75
2023-04-22T11:24:06.350Z,33.75
2023-04-22T11:25:06.347Z,33.75
2023-04-22T11:26:06.366Z,33.75
2023-04-22T11:27:06.332Z,39.38
2023-04-22T11:28:06.321Z,45.00
2023-04-22T11:29:06.327Z,39.38
2023-04-22T11:30:06.275Z,39.38
2023-04-22T11:31:06.319Z,33.75
2023-04-22T11:32:06.282Z,33.75
2023-04-22T11:33:06.285Z,33.75
2023-04-22T11:34:06.239Z,28.12
2023-04-22T11:35:06.256Z,33.75
2023-04-22T11:36:06.216Z,33.75
2023-04-22T11:37:06.205Z,28.12
2023-04-22T11:38:06.194Z,33.75
2023-04-22T11:39:06.195Z,33.75
2023-04-22T11:41:06.175Z,33.75
2023-04-22T11:42:06.171Z,33.75
2023-04-22T11:43:06.154Z,33.75
2023-04-22T11:44:06.125Z,33.75
2023-04-22T11:45:06.117Z,33.75
2023-04-22T11:46:06.128Z,33.75
2023-04-22T11:47:06.096Z,33.75
2023-04-22T11:48:06.137Z,28.12
2023-04-22T11:49:06.076Z,28.12
2023-04-22T11:50:06.053Z,28.12
2023-04-22T11:51:06.065Z,28.12
2023-04-22T11:52:06.041Z,28.12
2023-04-22T11:53:06.028Z,28.12
2023-04-22T11:54:06.022Z,28.12
2023-04-22T11:55:06.019Z,28.12
2023-04-22T11:56:06.041Z,28.12
2023-04-22T11:57:06.006Z,28.12
2023-04-22T11:58:05.967Z,28.12
2023-04-22T11:59:05.965Z,45.00
2023-04-22T12:00:05.961Z,33.75
2023-04-22T12:01:05.983Z,33.75
2023-04-22T12:02:05.987Z,28.12
2023-04-22T12:03:05.996Z,28.12
2023-04-22T12:04:06.058Z,22.50
2023-04-22T12:05:05.932Z,22.50
2023-04-22T12:06:05.900Z,22.50
2023-04-22T12:07:05.887Z,22.50
2023-04-22T12:08:05.873Z,22.50
2023-04-22T12:09:05.865Z,22.50
2023-04-22T12:10:05.846Z,22.50
2023-04-22T12:11:05.893Z,22.50
2023-04-22T12:12:05.844Z,22.50
2023-04-22T12:13:05.827Z,22.50
2023-04-22T12:14:05.821Z,22.50
2023-04-22T12:15:05.801Z,22.50
2023-04-22T12:16:05.787Z,16.88
2023-04-22T12:17:05.894Z,16.88
2023-04-22T12:18:05.757Z,16.88
2023-04-22T12:19:05.760Z,16.88
2023-04-22T12:20:05.770Z,16.88
2023-04-22T12:21:05.731Z,16.88
2023-04-22T12:22:05.702Z,16.88
2023-04-22T12:23:05.700Z,16.88
2023-04-22T12:24:05.689Z,22.50
2023-04-22T12:25:05.676Z,22.50
2023-04-22T12:26:05.709Z,22.50
2023-04-22T12:27:05.698Z,28.12
2023-04-22T12:28:05.641Z,33.75
2023-04-22T12:29:05.633Z,33.75
2023-04-22T12:30:05.619Z,33.75
2023-04-22T12:31:05.649Z,28.12
2023-04-22T12:32:05.614Z,28.12
2023-04-22T12:33:05.605Z,33.75
2023-04-22T12:34:05.630Z,33.75
2023-04-22T12:35:05.590Z,33.75
2023-04-22T12:36:05.590Z,28.12
2023-04-22T12:37:05.548Z,28.12
2023-04-22T12:38:05.549Z,22.50
2023-04-22T12:39:05.533Z,22.50
2023-04-22T12:40:05.512Z,22.50
2023-04-22T12:41:05.517Z,22.50
2023-04-22T12:42:05.516Z,22.50
2023-04-22T12:43:05.510Z,22.50
2023-04-22T12:44:05.480Z,16.88
2023-04-22T12:45:05.474Z,16.88
2023-04-22T12:46:05.512Z,16.88
2023-04-22T12:47:05.459Z,16.88
2023-04-22T12:48:05.428Z,16.88
2023-04-22T12:49:05.442Z,16.88
2023-04-22T12:50:05.469Z,16.88
2023-04-22T12:51:05.409Z,16.88
2023-04-22T12:52:05.420Z,16.88
2023-04-22T12:53:05.392Z,16.88
2023-04-22T12:54:05.369Z,16.88
2023-04-22T12:55:05.368Z,16.88
2023-04-22T12:56:05.353Z,16.88
2023-04-22T12:57:05.411Z,11.25
2023-04-22T12:58:05.316Z,11.25
2023-04-22T12:59:05.351Z,11.25
2023-04-22T13:00:05.323Z,11.25
2023-04-22T13:01:05.311Z,11.25
2023-04-22T13:02:05.392Z,11.25
2023-04-22T13:03:05.408Z,11.25
2023-04-22T13:04:05.412Z,11.25